Alyeska Resort
Max's Hourly Weather Roundup
ALYESKA_MAX 4/29/2017
Click Here for Graph

        DATE  TIME   Air  Wind  Wind  Wind  BATT   Rel
                    Temp   Spd   Dir  Gust  Volt  Hum%
                      F   MPH   AVG   MPH   AVG   AVG

   4/29/2017 16:00    35     7    74    13 13.87    70
   4/29/2017 15:00    34     8    71    13 13.84    69
   4/29/2017 14:00    35     5    84    12 13.80    66
   4/29/2017 13:00    34     2    91     9 13.78    76
   4/29/2017 12:00    34     2   123    10 13.69    83
   4/29/2017 11:00    32     2   102     8 13.57    83
   4/29/2017 10:00    30     1   112    10 13.59    83
   4/29/2017 09:00    29     1   150     7 13.63    87
   4/29/2017 08:00    28     6   103    17 13.40    88
   4/29/2017 07:00    28     8    89    20 12.86    88
   4/29/2017 06:00    28     7    83    21 12.79    90
   4/29/2017 05:00    28     5    81    18 12.80    94
   4/29/2017 04:00    28     3   125    12 12.82    98
   4/29/2017 03:00    28     4   126    17 12.83    95
   4/29/2017 02:00    28     6   117    19 12.86    94
   4/29/2017 01:00    28     9   115    22 12.88    95
   4/28/2017 24:00    28     5   102    20 12.92   100
   4/28/2017 23:00    27     2   111     8 12.99   100
   4/28/2017 22:00    28     4   111    22 13.13   100
   4/28/2017 21:00    28     1   158    14 13.61   100
   4/28/2017 20:00    29     2   235     7 13.91    98
   4/28/2017 19:00    30     8    92    24 13.88    91
   4/28/2017 18:00    32    17   105    29 13.85    86
   4/28/2017 17:00    32    18   118    28 13.82    84


Click Here for Graph